KOKC/OKC METAR and TAF weather

Enter ICAO airport designator
Station Type Date Time Source
KOKC METAR 2018/12/15 03:52 UTC NOAA

KOKC 150352Z 36016KT 10SM CLR 04/M07 A3017 RMK AO2 SLP221 T00391067 $


Station Type Date Time Source
KOKC Decoded METAR 2018/12/15 03:52 UTC NOAA

WILL ROGERS WORLD AIRPORT, OK, United States (KOKC) 35-23N 97-36W 390M
Dec 14, 2018 - 10:52 PM EST / 2018.12.15 0352 UTC
Wind: from the N (360 degrees) at 18 MPH (16 KT):0
Visibility: 10 mile(s):0
Sky conditions: clear
Temperature: 39.0 F (3.9 C)
Dew Point: 19.9 F (-6.7 C)
Relative Humidity: 45%
Pressure (altimeter): 30.17 in. Hg (1021 hPa)
ob: KOKC 150352Z 36016KT 10SM CLR 04/M07 A3017 RMK AO2 SLP221 T00391067
cycle: 4

Station Type Date Time Source
KOKC TAF 2018/12/14 18:24 UTC NOAA

TAF KOKC 141723Z 1418/1518 35022G28KT P6SM OVC015
TEMPO 1419/1421 SCT025
FM142100 35021G28KT P6SM SCT040
FM150000 35011KT P6SM SKC


Example: see airport list